• Join FlightAware (Why Join?)
  • Login
  • US Flag 
06:52PM EDT


 

Airport Tracker/Info


-or-


 

Live Flight TrackerFlight Track Log ✈ SWA1303 ✈ 13-Apr-2013 ✈ KSTL - KEWR

Flight Track Log - Related Links

Times and Time Zones

All times are in EDT time to prevent confusion due to time zone crossing. See the SWA1303 flight status page for this flight to view local times or setup timezone preferences in your user account.

Time Position Orientation Groundspeed Altitude Reporting Facility
EDT Latitude Longitude Course Direction KTS MPH feet Rate Location/Type
06:55PM 38.7697 -90.3328 344° North 179 206 2,600  Level FAA TRACON SMA TRACON (SMA)
06:56PM 38.7914 -90.3414 343° North 203 234 3,500 2,580 Climbing FAA TRACON SMA TRACON (SMA)
06:56PM 38.8100 -90.3500 340° North 225 259 4,400 2,520 Climbing FAA TRACON SMA TRACON (SMA)
06:56PM 38.8308 -90.3542 351° North 246 283 5,200 3,480 Climbing FAA TRACON SMA TRACON (SMA)
06:57PM 38.8583 -90.3411 20° North 273 314 6,700 4,020 Climbing FAA TRACON SMA TRACON (SMA)
06:57PM 38.8775 -90.3225 37° Northeast 286 329 7,900 3,180 Climbing FAA TRACON SMA TRACON (SMA)
06:57PM 38.8867 -90.2900 70° East 317 365 8,900 3,900 Climbing FAA TRACON SMA TRACON (SMA)
06:58PM 38.8831 -90.2439 96° East 341 392 10,500 4,320 Climbing FAA TRACON SMA TRACON (SMA)
06:58PM 38.8781 -90.2072 100° East 343 395 11,800 3,300 Climbing FAA TRACON SMA TRACON (SMA)
06:58PM 38.8722 -90.1683 101° East 353 406 12,700 3,420 Climbing FAA TRACON SMA TRACON (SMA)
06:59PM 38.8661 -90.1178 99° East 373 429 14,100 3,720 Climbing FAA TRACON SMA TRACON (SMA)
06:59PM 38.8619 -90.0761 97° East 383 441 15,200 3,420 Climbing FAA TRACON SMA TRACON (SMA)
06:59PM 38.8569 -90.0336 99° East 390 449 16,400 4,020 Climbing FAA TRACON SMA TRACON (SMA)
07:00PM 38.8511 -89.9797 98° East 396 456 17,900 4,020 Climbing FAA TRACON SMA TRACON (SMA)
07:00PM 38.8461 -89.9361 98° East 401 461 19,100 3,300 Climbing FAA TRACON SMA TRACON (SMA)
07:00PM 38.8414 -89.8919 98° East 406 467 20,100 3,420 Climbing FAA TRACON SMA TRACON (SMA)
07:01PM 38.8350 -89.8358 98° East 412 474 21,400 3,420 Climbing FAA TRACON SMA TRACON (SMA)
07:01PM 38.8300 -89.7900 98° East 419 482 22,400 2,820 Climbing FAA TRACON SMA TRACON (SMA)
07:01PM 38.8236 -89.7439 100° East 424 488 23,300 3,120 Climbing FAA TRACON SMA TRACON (SMA)
07:02PM 38.8169 -89.6856 98° East 431 496 24,500 3,000 Climbing FAA TRACON SMA TRACON (SMA)
07:02PM 38.8122 -89.6383 97° East 434 499 25,300 2,520 Climbing FAA TRACON SMA TRACON (SMA)
07:02PM 38.8067 -89.5906 98° East 441 507 26,200 2,580 Climbing FAA TRACON SMA TRACON (SMA)
07:03PM 38.8014 -89.5419 98° East 447 514 27,000 2,520 Climbing FAA TRACON SMA TRACON (SMA)
07:03PM 38.7950 -89.4806 98° East 452 520 27,900 2,340 Climbing FAA TRACON SMA TRACON (SMA)
07:03PM 38.7961 -89.4300 88° East 459 528 28,600 2,100 Climbing FAA TRACON SMA TRACON (SMA)
07:04PM 38.7989 -89.3792 86° East 465 535 29,300 2,220 Climbing FAA TRACON SMA TRACON (SMA)
07:04PM 38.8086 -89.3164 79° East 469 540 30,100 2,040 Climbing FAA TRACON SMA TRACON (SMA)
07:04PM 38.8158 -89.2650 80° East 474 545 30,700 1,800 Climbing FAA TRACON SMA TRACON (SMA)
07:05PM 38.8219 -89.2131 81° East 480 552 31,300 1,920 Climbing FAA TRACON SMA TRACON (SMA)
07:05PM 38.8308 -89.1472 80° East 486 559 32,000 1,740 Climbing FAA TRACON SMA TRACON (SMA)
07:05PM 38.8392 -89.0939 79° East 492 566 32,500 1,500 Climbing FAA TRACON SMA TRACON (SMA)
07:06PM 38.8547 -89.0139 76° East 503 579 33,800 1,560 Climbing Kansas City Center
07:07PM 38.8792 -88.8553 79° East 510 587 35,500 1,800 Climbing Kansas City Center
07:08PM 38.9508 -88.6564 65° Northeast 513 590 37,500 1,500 Climbing Kansas City Center
07:09PM 39.0089 -88.5064 63° Northeast 511 588 38,700 1,080 Climbing Kansas City Center
07:10PM 39.0736 -88.3397 63° Northeast 514 592 39,800 1,020 Climbing Kansas City Center
07:11PM 39.1408 -88.1719 63° Northeast 520 598 40,900 540 Climbing Kansas City Center
07:12PM 39.2086 -88.0039 62° Northeast 523 602 41,000  Climbing Kansas City Center
07:13PM 39.2589 -87.8708 64° Northeast 524 603 41,000  Level Indianapolis Center
07:14PM 39.3256 -87.7019 63° Northeast 524 603 41,000  Level Indianapolis Center
07:15PM 39.3914 -87.5322 63° Northeast 524 603 41,000  Level Indianapolis Center
07:16PM 39.4572 -87.3636 63° Northeast 522 601 41,000  Level Indianapolis Center
07:17PM 39.5228 -87.1969 63° Northeast 519 597 41,000  Level Indianapolis Center
07:18PM 39.6006 -86.9919 64° Northeast 521 600 41,000  Level Indianapolis Center
07:19PM 39.6650 -86.8219 64° Northeast 522 601 41,000  Level Indianapolis Center
07:20PM 39.7306 -86.6536 63° Northeast 520 598 41,000  Level Indianapolis Center
07:21PM 39.7942 -86.4825 64° Northeast 522 601 41,000  Level Indianapolis Center
07:22PM 39.8583 -86.3119 64° Northeast 522 601 41,000  Level Indianapolis Center
07:23PM 39.9228 -86.1397 64° Northeast 526 605 41,000  Level Indianapolis Center
07:24PM 39.9867 -85.9681 64° Northeast 525 604 41,000  Level Indianapolis Center
07:25PM 40.0450 -85.8067 65° Northeast 526 605 41,000  Level Indianapolis Center
07:26PM 40.1100 -85.6342 64° Northeast 525 604 41,000  Level Indianapolis Center
07:27PM 40.1717 -85.4631 65° Northeast 519 597 41,000  Level Indianapolis Center
07:28PM 40.2311 -85.2872 66° East 521 600 41,000  Level Indianapolis Center
07:29PM 40.2853 -85.0756 71° East 523 602 41,000  Level Indianapolis Center
07:30PM 40.3325 -84.8947 71° East 520 598 41,000  Level Indianapolis Center
07:31PM 40.3808 -84.7119 71° East 524 603 41,000  Level Indianapolis Center
07:32PM 40.4281 -84.5306 71° East 522 601 41,000  Level Indianapolis Center
07:33PM 40.4747 -84.3481 71° East 522 601 41,000  Level Indianapolis Center
07:34PM 40.5217 -84.1650 71° East 522 601 41,000  Level Indianapolis Center
07:35PM 40.5675 -83.9819 72° East 522 601 41,000  Level Indianapolis Center
07:36PM 40.6139 -83.7972 72° East 523 602 41,000  Level Indianapolis Center
07:37PM 40.6597 -83.6125 72° East 523 602 41,000  Level Indianapolis Center
07:38PM 40.7064 -83.4297 71° East 522 601 41,000  Level Indianapolis Center
07:39PM 40.7514 -83.2425 72° East 526 605 41,000  Level Indianapolis Center
07:41PM 40.7975 -83.0558 72° East 530 610 41,000  Level Indianapolis Center
07:42PM 40.8494 -82.8367 73° East 516 594 41,000  Level Cleveland Center
07:43PM 40.8947 -82.6514 72° East 516 594 41,000  Level Cleveland Center
07:44PM 40.9397 -82.4633 72° East 522 601 41,000  Level Cleveland Center
07:45PM 40.9822 -82.2803 73° East 522 601 41,000  Level Cleveland Center
07:46PM 41.0264 -82.0914 73° East 528 608 41,000  Level Cleveland Center
07:47PM 41.0639 -81.9269 73° East 528 608 41,000  Level Cleveland Center
07:48PM 41.1122 -81.7186 73° East 530 610 41,000  Level Cleveland Center
07:49PM 41.1575 -81.5319 72° East 530 610 41,000  Level Cleveland Center
07:50PM 41.1967 -81.3475 74° East 523 602 41,000  Level Cleveland Center
07:51PM 41.2394 -81.1631 73° East 518 596 41,000  Level Cleveland Center
07:52PM 41.2797 -80.9756 74° East 519 597 41,000  Level Cleveland Center
07:53PM 41.3178 -80.8125 73° East 519 597 41,000  Level Cleveland Center
07:54PM 41.3575 -80.6219 74° East 521 600 41,000  Level Cleveland Center
07:55PM 41.3992 -80.4364 73° East 515 593 41,000  Level Cleveland Center
07:56PM 41.4406 -80.2508 73° East 515 593 41,000  Level Cleveland Center
07:57PM 41.4814 -80.0619 74° East 515 593 41,000  Level Cleveland Center
07:58PM 41.5181 -79.8786 75° East 515 593 41,000  Level Cleveland Center
07:59PM 41.5606 -79.6869 73° East 515 593 41,000  Level Cleveland Center
08:00PM 41.5756 -79.4922 84° East 515 593 41,000  Level Cleveland Center
08:01PM 41.5692 -79.2981 92° East 515 593 41,000  Level Cleveland Center
08:02PM 41.5544 -79.1069 96° East 515 593 41,000 -420 Level Cleveland Center
08:03PM 41.5394 -78.9214 96° East 515 593 40,200 -900 Descending Cleveland Center
08:04PM 41.5239 -78.7306 96° East 515 593 39,200 -1,080 Descending Cleveland Center
08:06PM 41.4850 -78.2983 97° East 516 594 36,800 -1,260 Descending New York Center
08:07PM 41.4681 -78.1025 97° East 525 604 35,300 -1,500 Descending New York Center
08:08PM 41.4486 -77.9067 97° East 525 604 33,900 -1,440 Descending New York Center
08:09PM 41.4331 -77.7111 96° East 520 598 32,400 -1,440 Descending New York Center
08:10PM 41.4142 -77.5322 98° East 528 608 31,100 -720 Descending New York Center
08:11PM 41.3864 -77.3247 100° East 522 601 31,000 -60 Descending New York Center
08:12PM 41.3525 -77.1417 104° East 515 593 31,000 -240 Level New York Center
08:13PM 41.3183 -76.9617 104° East 505 581 30,600 -1,260 Descending New York Center
08:14PM 41.2853 -76.7928 105° East 491 565 28,500 -2,100 Descending New York Center
08:15PM 41.2542 -76.6272 104° East 478 550 26,500 -1,860 Descending New York Center
08:16PM 41.2206 -76.4614 105° East 466 536 24,900 -1,800 Descending New York Center
08:17PM 41.1886 -76.2989 105° East 466 536 22,900 -2,040 Descending New York Center
08:18PM 41.1583 -76.1394 104° East 461 531 20,900 -2,160 Descending New York Center
08:19PM 41.1275 -75.9908 105° East 428 493 18,700 -2,040 Descending New York Center
08:20PM 41.0897 -75.8531 110° East 409 471 16,800 -1,860 Descending New York Center
08:21PM 41.0517 -75.7181 110° East 395 455 15,000 -1,620 Descending New York Center
08:22PM 41.0211 -75.6031 109° East 388 447 13,600 -1,260 Descending New York Center
08:23PM 40.9847 -75.4742 110° East 379 436 12,600 -1,020 Descending New York Center
08:24PM 40.9442 -75.3367 111° Southeast 379 436 11,600 -1,020 Descending New York Center
08:25PM 40.9092 -75.2164 111° Southeast 371 427 10,600 -1,020 Descending New York Center
08:26PM 40.8819 -75.1103 109° East 342 394 9,600 -1,320 Descending New York Center
08:27PM 40.8483 -74.9983 112° Southeast 332 382 8,000 -1,500 Descending New York Center
08:28PM 40.8236 -74.8733 105° East 322 371 6,600 -1,200 Descending New York Center
08:29PM 40.8414 -74.7786 76° East 299 344 5,700 -1,080 Descending New York Center
08:30PM 40.8600 -74.6644 78° East 293 337 4,500 -840 Descending New York Center
08:31PM 40.8731 -74.5772 79° East 273 314 4,000 -300 Descending New York Center
08:32PM 40.8833 -74.4833 82° East 269 310 4,000 -420 Level New York TRACON
08:33PM 40.8833 -74.3667 90° East 275 316 3,200 -540 Descending New York TRACON
08:34PM 40.8667 -74.2833 105° East 270 311 3,000 -240 Descending New York TRACON
08:35PM 40.8667 -74.1833 90° East 254 292 2,800 -300 Descending New York TRACON
08:36PM 40.8333 -74.1167 123° Southeast 219 252 2,500 -360 Descending New York TRACON
08:37PM 40.8000 -74.1000 159° South 196 226 2,200 -720 Descending New York TRACON
08:38PM 40.7500 -74.1333 207° Southwest 170 196 1,100 -960 Descending New York TRACON
08:39PM 40.7167 -74.1500 201° Southwest 136 157 400 -840 Descending New York TRACON
08:41PM 40.6925 -74.1687 198° South  Level Estimated